Time,TemperatureF,DewpointF,PressureIn,WindDirection,WindDirectionDegrees,WindSpeedMPH,WindSpeedGustMPH,Humidity,HourlyPrecipIn,Conditions,Clouds,dailyrainin,SolarRadiationWatts/m^2,SoftwareType,DateUTC
2013-03-16 00:00:00,44.3,42.1,29.52,SW,225,3.0,10.0,92,0.02,,---,0.00,0.00,VWS V14.01,2013-03-16 00:00:00,
2013-03-16 00:30:00,44.6,42.4,29.51,SSW,202,3.0,10.0,92,0.01,,---,0.00,0.00,VWS V14.01,2013-03-16 00:30:00,
2013-03-16 01:00:00,44.8,42.6,29.50,SSW,202,3.0,11.0,92,0.00,,---,0.00,0.00,VWS V14.01,2013-03-16 01:00:00,
2013-03-16 01:30:00,44.4,42.5,29.49,SSW,202,3.0,16.0,93,0.02,,---,0.02,0.00,VWS V14.01,2013-03-16 01:30:00,
2013-03-16 02:00:00,44.5,42.6,29.47,South,180,3.0,15.0,93,0.02,,---,0.02,0.00,VWS V14.01,2013-03-16 02:00:00,
2013-03-16 02:30:00,44.5,42.3,29.46,SSW,202,3.0,17.0,92,0.02,,---,0.02,0.00,VWS V14.01,2013-03-16 02:30:00,
2013-03-16 03:00:00,44.5,42.3,29.44,South,180,3.0,15.0,92,0.00,,---,0.02,0.00,VWS V14.01,2013-03-16 03:00:00,
2013-03-16 03:30:00,44.3,42.1,29.44,South,180,4.0,14.0,92,0.00,,---,0.02,0.00,VWS V14.01,2013-03-16 03:30:00,
2013-03-16 04:00:00,44.2,41.7,29.43,South,180,3.0,17.0,91,0.01,,---,0.03,0.00,VWS V14.01,2013-03-16 04:00:00,
2013-03-16 04:30:00,43.7,41.2,29.42,South,180,4.0,17.0,91,0.02,,---,0.04,0.00,VWS V14.01,2013-03-16 04:30:00,
2013-03-16 05:00:00,43.0,40.6,29.41,SSW,202,4.0,17.0,91,0.02,,---,0.05,0.00,VWS V14.01,2013-03-16 05:00:00,
2013-03-16 05:30:00,42.8,40.6,29.40,South,180,4.0,19.0,92,0.04,,---,0.07,0.00,VWS V14.01,2013-03-16 05:30:00,
2013-03-16 06:00:00,42.8,40.9,29.38,South,180,4.0,19.0,93,0.03,,---,0.07,0.00,VWS V14.01,2013-03-16 06:00:00,
2013-03-16 06:30:00,43.2,40.8,29.38,South,180,5.0,21.0,91,0.02,,---,0.07,0.00,VWS V14.01,2013-03-16 06:30:00,
2013-03-16 07:00:00,43.2,41.0,29.37,SSE,158,5.0,15.0,92,0.01,,---,0.08,10.00,VWS V14.01,2013-03-16 07:00:00,
2013-03-16 07:30:00,43.3,41.1,29.36,South,180,5.0,19.0,92,0.02,,---,0.09,28.00,VWS V14.01,2013-03-16 07:30:00,
2013-03-16 08:00:00,43.5,41.3,29.36,SSE,158,5.0,18.0,92,0.02,,---,0.09,46.00,VWS V14.01,2013-03-16 08:00:00,
2013-03-16 08:30:00,43.8,41.6,29.35,SSE,158,6.0,19.0,92,0.02,,---,0.09,56.00,VWS V14.01,2013-03-16 08:30:00,
2013-03-16 09:00:00,43.6,41.4,29.35,SSE,158,6.0,23.0,92,0.02,,---,0.11,72.00,VWS V14.01,2013-03-16 09:00:00,
2013-03-16 09:30:00,42.9,40.7,29.35,SSW,202,4.0,18.0,92,0.04,,---,0.13,39.00,VWS V14.01,2013-03-16 09:30:00,
2013-03-16 10:00:00,41.6,39.7,29.36,SW,225,4.0,14.0,93,0.10,,---,0.20,51.00,VWS V14.01,2013-03-16 10:00:00,
2013-03-16 10:30:00,41.1,39.2,29.36,SW,225,4.0,12.0,93,0.11,,---,0.22,83.00,VWS V14.01,2013-03-16 10:30:00,
2013-03-16 11:00:00,42.1,40.5,29.36,SSW,202,2.0,7.0,94,0.09,,---,0.23,171.00,VWS V14.01,2013-03-16 11:00:00,
2013-03-16 11:30:00,43.7,42.1,29.36,SW,225,1.0,5.0,94,0.04,,---,0.24,275.00,VWS V14.01,2013-03-16 11:30:00,
2013-03-16 12:00:00,47.4,45.5,29.36,SW,225,2.0,8.0,93,0.02,,---,0.24,348.00,VWS V14.01,2013-03-16 12:00:00,
2013-03-16 12:30:00,46.4,42.8,29.36,SSW,202,2.0,9.0,87,0.01,,---,0.24,256.00,VWS V14.01,2013-03-16 12:30:00,
2013-03-16 13:00:00,50.6,44.3,29.34,SSW,202,2.0,10.0,79,0.00,,---,0.24,618.00,VWS V14.01,2013-03-16 13:00:00,
2013-03-16 13:30:00,50.0,43.4,29.34,SSW,202,3.0,12.0,78,0.00,,---,0.24,356.00,VWS V14.01,2013-03-16 13:30:00,
2013-03-16 14:00:00,47.6,43.6,29.33,SW,225,3.0,14.0,86,0.00,,---,0.24,262.00,VWS V14.01,2013-03-16 14:00:00,
2013-03-16 14:30:00,47.2,42.3,29.32,SSE,158,3.0,10.0,83,0.00,,---,0.24,267.00,VWS V14.01,2013-03-16 14:30:00,
2013-03-16 15:00:00,48.9,41.7,29.31,South,180,3.0,14.0,76,0.00,,---,0.24,235.00,VWS V14.01,2013-03-16 15:00:00,
2013-03-16 15:30:00,46.9,41.4,29.30,SSE,158,5.0,15.0,81,0.01,,---,0.24,126.00,VWS V14.01,2013-03-16 15:30:00,
2013-03-16 16:00:00,45.2,41.6,29.30,SSE,158,4.0,16.0,87,0.01,,---,0.24,111.00,VWS V14.01,2013-03-16 16:00:00,
2013-03-16 16:30:00,44.7,41.4,29.30,SSE,158,5.0,14.0,88,0.01,,---,0.24,73.00,VWS V14.01,2013-03-16 16:30:00,
2013-03-16 17:00:00,44.0,40.7,29.30,SSE,158,6.0,17.0,88,0.02,,---,0.26,36.00,VWS V14.01,2013-03-16 17:00:00,
2013-03-16 17:30:00,43.2,40.8,29.30,SSE,158,4.0,16.0,91,0.04,,---,0.28,4.00,VWS V14.01,2013-03-16 17:30:00,
2013-03-16 18:00:00,42.4,40.2,29.31,SSE,158,2.0,17.0,92,0.05,,---,0.29,1.00,VWS V14.01,2013-03-16 18:00:00,
2013-03-16 18:30:00,41.2,39.1,29.29,SSE,158,3.0,7.0,92,0.04,,---,0.30,0.00,VWS V14.01,2013-03-16 18:30:00,
2013-03-16 19:00:00,40.7,38.8,29.27,ESE,112,1.0,6.0,93,0.02,,---,0.30,0.00,VWS V14.01,2013-03-16 19:00:00,
2013-03-16 19:30:00,42.3,40.4,29.27,SSE,158,3.0,9.0,93,0.02,,---,0.31,0.00,VWS V14.01,2013-03-16 19:30:00,
2013-03-16 20:00:00,42.0,40.4,29.26,SSE,158,3.0,11.0,94,0.06,,---,0.36,0.00,VWS V14.01,2013-03-16 20:00:00,
2013-03-16 20:30:00,41.9,40.3,29.26,SSE,158,1.0,6.0,94,0.06,,---,0.36,0.00,VWS V14.01,2013-03-16 20:30:00,
2013-03-16 21:00:00,41.3,39.4,29.25,SSW,202,2.0,9.0,93,0.06,,---,0.36,0.00,VWS V14.01,2013-03-16 21:00:00,
2013-03-16 21:30:00,40.9,39.0,29.26,SSW,202,1.0,8.0,93,0.00,,---,0.36,0.00,VWS V14.01,2013-03-16 21:30:00,
2013-03-16 22:00:00,41.3,39.4,29.26,SW,225,1.0,7.0,93,0.00,,---,0.36,0.00,VWS V14.01,2013-03-16 22:00:00,
2013-03-16 22:30:00,41.4,39.2,29.27,SW,225,3.0,9.0,92,0.01,,---,0.37,0.00,VWS V14.01,2013-03-16 22:30:00,
2013-03-16 23:00:00,41.4,39.2,29.28,SW,225,4.0,10.0,92,0.01,,---,0.37,0.00,VWS V14.01,2013-03-16 23:00:00,
2013-03-16 23:30:00,40.2,37.5,29.29,SW,225,5.0,11.0,90,0.01,,---,0.37,0.00,VWS V14.01,2013-03-16 23:30:00,